createdAt,value
2017-10-18T00:01:42.862Z,9.80
2017-10-18T00:04:45.917Z,9.70
2017-10-18T00:07:47.912Z,9.70
2017-10-18T00:10:51.047Z,9.70
2017-10-18T00:13:53.142Z,9.70
2017-10-18T00:16:55.930Z,9.60
2017-10-18T00:19:58.625Z,9.60
2017-10-18T00:23:00.573Z,9.60
2017-10-18T00:26:02.631Z,9.60
2017-10-18T00:29:05.497Z,9.60
2017-10-18T00:32:07.437Z,9.60
2017-10-18T00:35:09.824Z,9.60
2017-10-18T00:38:11.797Z,9.50
2017-10-18T00:41:13.761Z,9.50
2017-10-18T00:44:16.462Z,9.50
2017-10-18T00:47:19.246Z,9.50
2017-10-18T00:50:21.951Z,9.50
2017-10-18T00:53:24.745Z,9.40
2017-10-18T00:56:26.839Z,9.40
2017-10-18T00:59:29.663Z,9.40
2017-10-18T01:02:31.659Z,9.40
2017-10-18T01:05:34.039Z,9.40
2017-10-18T01:08:36.125Z,9.30
2017-10-18T01:11:38.203Z,9.30
2017-10-18T01:14:40.162Z,9.20
2017-10-18T01:17:43.370Z,9.20
2017-10-18T01:20:45.885Z,9.20
2017-10-18T01:23:48.712Z,9.10
2017-10-18T01:26:50.681Z,9.10
2017-10-18T01:29:52.761Z,9.10
2017-10-18T01:32:56.256Z,9.10
2017-10-18T01:35:59.585Z,9.10
2017-10-18T01:39:02.293Z,9.00
2017-10-18T01:42:05.110Z,9.00
2017-10-18T01:45:07.054Z,9.00
2017-10-18T01:48:09.370Z,9.00
2017-10-18T01:51:12.058Z,9.00
2017-10-18T01:54:15.149Z,9.00
2017-10-18T01:57:17.153Z,8.90
2017-10-18T02:00:20.245Z,8.90
2017-10-18T02:03:22.191Z,8.90
2017-10-18T02:06:24.540Z,8.90
2017-10-18T02:09:27.442Z,8.90
2017-10-18T02:12:30.200Z,8.90
2017-10-18T02:15:32.124Z,8.80
2017-10-18T02:18:35.317Z,8.80
2017-10-18T02:21:37.258Z,8.80
2017-10-18T02:24:39.606Z,8.80
2017-10-18T02:27:42.294Z,8.70
2017-10-18T02:30:44.581Z,8.70
2017-10-18T02:33:46.573Z,8.70
2017-10-18T02:36:48.518Z,8.70
2017-10-18T02:39:50.602Z,8.70
2017-10-18T02:42:52.688Z,8.70
2017-10-18T02:45:54.611Z,8.70
2017-10-18T02:48:56.577Z,8.70
2017-10-18T02:51:58.527Z,8.70
2017-10-18T02:55:01.105Z,8.70
2017-10-18T02:58:03.073Z,8.70
2017-10-18T03:01:05.158Z,8.70
2017-10-18T03:04:07.846Z,8.80
2017-10-18T03:07:10.607Z,8.80
2017-10-18T03:10:12.616Z,8.70
2017-10-18T03:13:15.041Z,8.80
2017-10-18T03:16:17.060Z,8.80
2017-10-18T03:19:19.856Z,8.80
2017-10-18T03:22:21.795Z,8.80
2017-10-18T03:25:24.623Z,8.80
2017-10-18T03:28:26.548Z,8.80
2017-10-18T03:31:28.889Z,8.80
2017-10-18T03:34:30.833Z,8.80
2017-10-18T03:37:32.809Z,8.80
2017-10-18T03:40:36.340Z,8.90
2017-10-18T03:43:38.306Z,8.80
2017-10-18T03:46:40.305Z,8.90
2017-10-18T03:49:42.313Z,8.90
2017-10-18T03:52:45.094Z,8.90
2017-10-18T03:55:47.042Z,8.90
2017-10-18T03:58:49.096Z,8.90
2017-10-18T04:01:51.471Z,9.00
2017-10-18T04:04:54.278Z,9.00
2017-10-18T04:07:56.370Z,9.00
2017-10-18T04:10:58.346Z,9.00
2017-10-18T04:14:01.148Z,9.00
2017-10-18T04:17:03.110Z,9.00
2017-10-18T04:20:05.392Z,9.10
2017-10-18T04:23:07.400Z,9.10
2017-10-18T04:26:10.495Z,9.20
2017-10-18T04:29:13.193Z,9.20
2017-10-18T04:32:15.265Z,9.20
2017-10-18T04:35:17.282Z,9.20
2017-10-18T04:38:19.338Z,9.20
2017-10-18T04:41:21.270Z,9.30
2017-10-18T04:44:23.228Z,9.30
2017-10-18T04:47:25.171Z,9.30
2017-10-18T04:50:27.141Z,9.40
2017-10-18T04:53:29.089Z,9.40
2017-10-18T04:56:31.158Z,9.40
2017-10-18T04:59:33.962Z,9.40
2017-10-18T05:02:36.380Z,9.40
2017-10-18T05:05:38.316Z,9.40
2017-10-18T05:08:40.262Z,9.40
2017-10-18T05:11:42.186Z,9.40
2017-10-18T05:14:44.486Z,9.40
2017-10-18T05:17:46.445Z,9.50
2017-10-18T05:20:48.395Z,9.50
2017-10-18T05:23:50.342Z,9.50
2017-10-18T05:26:52.698Z,9.50
2017-10-18T05:29:54.695Z,9.50
2017-10-18T05:32:57.920Z,9.50
2017-10-18T05:36:00.742Z,9.50
2017-10-18T05:39:03.088Z,9.50
2017-10-18T05:42:05.721Z,9.50
2017-10-18T05:45:07.675Z,9.50
2017-10-18T05:48:10.378Z,9.50
2017-10-18T05:51:12.679Z,9.50
2017-10-18T05:54:15.368Z,9.50
2017-10-18T05:57:17.802Z,9.50
2017-10-18T06:00:19.794Z,9.50
2017-10-18T06:03:22.142Z,9.60
2017-10-18T06:06:25.049Z,9.60
2017-10-18T06:09:28.173Z,9.60
2017-10-18T06:12:30.162Z,9.60
2017-10-18T06:15:32.237Z,9.70
2017-10-18T06:18:35.013Z,9.80
2017-10-18T06:21:36.992Z,9.80
2017-10-18T06:24:38.943Z,9.90
2017-10-18T06:27:41.850Z,10.00
2017-10-18T06:30:43.877Z,10.10
2017-10-18T06:33:45.821Z,10.20
2017-10-18T06:36:47.839Z,10.30
2017-10-18T06:39:50.647Z,10.50
2017-10-18T06:42:52.629Z,10.50
2017-10-18T06:45:54.922Z,10.60
2017-10-18T06:48:57.605Z,10.80
2017-10-18T06:51:59.883Z,10.80
2017-10-18T06:55:01.894Z,10.90
2017-10-18T06:58:04.706Z,11.00
2017-10-18T07:01:07.489Z,11.10
2017-10-18T07:04:09.610Z,11.00
2017-10-18T07:07:11.553Z,11.10
2017-10-18T07:10:13.565Z,11.20
2017-10-18T07:13:16.286Z,11.60
2017-10-18T07:16:18.335Z,11.60
2017-10-18T07:19:21.044Z,12.00
2017-10-18T07:22:23.796Z,12.20
2017-10-18T07:25:25.814Z,12.20
2017-10-18T07:28:28.122Z,12.50
2017-10-18T07:31:30.917Z,13.00
2017-10-18T07:34:33.630Z,13.30
2017-10-18T07:37:36.432Z,13.60
2017-10-18T07:40:38.826Z,13.50
2017-10-18T07:43:40.915Z,14.00
2017-10-18T07:46:42.997Z,14.70
2017-10-18T07:49:45.274Z,15.10
2017-10-18T07:52:48.129Z,15.90
2017-10-18T07:55:50.086Z,15.90
2017-10-18T07:58:52.572Z,16.50
2017-10-18T08:01:54.951Z,16.80
2017-10-18T08:04:58.042Z,16.40
2017-10-18T08:08:00.758Z,16.00
2017-10-18T08:11:02.782Z,15.90
2017-10-18T08:14:04.719Z,15.60
2017-10-18T08:17:07.510Z,15.20
2017-10-18T08:20:09.522Z,15.20
2017-10-18T08:23:11.896Z,15.30
2017-10-18T08:26:14.612Z,16.60
2017-10-18T08:29:16.672Z,16.60
2017-10-18T08:32:18.614Z,17.20
2017-10-18T08:35:20.923Z,18.20
2017-10-18T08:38:22.851Z,19.00
2017-10-18T08:41:24.862Z,20.20
2017-10-18T08:44:26.798Z,21.20
2017-10-18T08:47:29.085Z,22.40
2017-10-18T08:50:31.026Z,23.40
2017-10-18T08:53:33.374Z,24.00
2017-10-18T08:56:36.189Z,24.40
2017-10-18T08:59:38.576Z,24.40
2017-10-18T09:02:41.277Z,24.90
2017-10-18T09:05:44.392Z,25.40
2017-10-18T09:08:47.193Z,25.60
2017-10-18T09:11:50.315Z,25.80
2017-10-18T09:14:52.248Z,25.80
2017-10-18T09:17:54.856Z,26.00
2017-10-18T09:20:56.843Z,26.30
2017-10-18T09:23:59.142Z,27.10
2017-10-18T09:27:01.341Z,27.60
2017-10-18T09:30:04.140Z,28.70
2017-10-18T09:33:06.855Z,28.50
2017-10-18T09:36:09.951Z,28.30
2017-10-18T09:39:11.943Z,28.30
2017-10-18T09:42:15.033Z,28.40
2017-10-18T09:45:17.810Z,28.60
2017-10-18T09:48:20.166Z,28.60
2017-10-18T09:51:22.116Z,28.70
2017-10-18T09:54:25.226Z,28.80
2017-10-18T09:57:27.158Z,28.80
2017-10-18T10:00:29.514Z,29.30
2017-10-18T10:03:32.241Z,29.30
2017-10-18T10:06:34.604Z,29.20
2017-10-18T10:09:37.443Z,29.60
2017-10-18T10:12:40.134Z,29.60
2017-10-18T10:15:42.075Z,29.80
2017-10-18T10:18:44.195Z,30.00
2017-10-18T10:21:46.130Z,30.20
2017-10-18T10:24:48.126Z,30.00
2017-10-18T10:27:50.103Z,30.10
2017-10-18T10:30:52.418Z,30.30
2017-10-18T10:33:55.315Z,30.50
2017-10-18T10:36:58.429Z,30.80
2017-10-18T10:40:01.254Z,30.90
2017-10-18T10:43:03.329Z,30.90
2017-10-18T10:46:05.280Z,30.80
2017-10-18T10:49:07.570Z,30.30
2017-10-18T10:52:11.014Z,30.20
2017-10-18T10:55:13.759Z,30.50
2017-10-18T10:58:15.892Z,30.50
2017-10-18T11:01:19.016Z,31.10
2017-10-18T11:04:20.938Z,31.10
2017-10-18T11:07:23.098Z,30.80
2017-10-18T11:10:25.039Z,31.10
2017-10-18T11:13:27.480Z,31.30
2017-10-18T11:16:29.435Z,31.60
2017-10-18T11:19:32.240Z,30.10
2017-10-18T11:22:35.038Z,29.10
2017-10-18T11:25:37.837Z,28.90
2017-10-18T11:28:40.644Z,28.90
2017-10-18T11:31:43.859Z,28.70
2017-10-18T11:34:45.817Z,28.60
2017-10-18T11:37:47.797Z,28.80
2017-10-18T11:40:49.850Z,29.00
2017-10-18T11:43:51.869Z,29.20
2017-10-18T11:46:53.806Z,28.90
2017-10-18T11:49:56.148Z,28.60
2017-10-18T11:52:58.152Z,28.10
2017-10-18T11:56:00.210Z,27.80
2017-10-18T11:59:02.141Z,27.70
2017-10-18T12:02:04.377Z,27.80
2017-10-18T12:05:06.369Z,27.50
2017-10-18T12:08:08.784Z,27.50
2017-10-18T12:11:10.865Z,27.60
2017-10-18T12:14:13.714Z,27.60
2017-10-18T12:17:15.756Z,27.60
2017-10-18T12:20:17.850Z,28.10
2017-10-18T12:23:20.016Z,28.90
2017-10-18T12:26:23.075Z,30.30
2017-10-18T12:29:25.108Z,30.30
2017-10-18T12:32:28.039Z,30.80
2017-10-18T12:35:29.982Z,30.80
2017-10-18T12:38:32.301Z,31.00
2017-10-18T12:41:34.273Z,31.20
2017-10-18T12:44:37.409Z,30.70
2017-10-18T12:47:39.513Z,30.70
2017-10-18T12:50:41.570Z,30.30
2017-10-18T12:53:43.498Z,30.20
2017-10-18T12:56:45.823Z,30.20
2017-10-18T12:59:47.823Z,30.30
2017-10-18T13:02:51.729Z,30.20
2017-10-18T13:05:53.740Z,30.20
2017-10-18T13:08:56.208Z,30.20
2017-10-18T13:11:58.403Z,29.00
2017-10-18T13:15:01.553Z,27.00
2017-10-18T13:18:03.500Z,27.00
2017-10-18T13:21:06.299Z,26.80
2017-10-18T13:24:08.958Z,26.70
2017-10-18T13:27:11.310Z,26.30
2017-10-18T13:30:13.312Z,25.70
2017-10-18T13:33:15.300Z,25.10
2017-10-18T13:36:17.274Z,24.50
2017-10-18T13:39:19.670Z,24.10
2017-10-18T13:42:21.622Z,23.70
2017-10-18T13:45:24.754Z,22.90
2017-10-18T13:48:26.731Z,22.80
2017-10-18T13:51:28.862Z,22.50
2017-10-18T13:54:32.346Z,22.10
2017-10-18T13:57:34.638Z,22.00
2017-10-18T14:00:36.592Z,21.70
2017-10-18T14:03:38.909Z,21.30
2017-10-18T14:06:40.889Z,21.00
2017-10-18T14:09:42.856Z,20.60
2017-10-18T14:12:44.803Z,20.30
2017-10-18T14:15:47.509Z,20.10
2017-10-18T14:18:49.514Z,19.90
2017-10-18T14:21:51.496Z,19.70
2017-10-18T14:24:53.441Z,19.40
2017-10-18T14:27:55.546Z,19.00
2017-10-18T14:30:57.596Z,18.90
2017-10-18T14:34:00.063Z,18.80
2017-10-18T14:37:02.783Z,18.60
2017-10-18T14:40:05.165Z,18.60
2017-10-18T14:43:07.957Z,18.40
2017-10-18T14:46:09.940Z,18.40
2017-10-18T14:49:12.656Z,18.30
2017-10-18T14:52:15.786Z,18.30
2017-10-18T14:55:17.717Z,18.30
2017-10-18T14:58:19.726Z,18.40
2017-10-18T15:01:22.523Z,18.50
2017-10-18T15:04:26.053Z,18.60
2017-10-18T15:07:28.873Z,18.70
2017-10-18T15:10:31.006Z,18.60
2017-10-18T15:13:32.952Z,18.60
2017-10-18T15:16:35.066Z,18.60
2017-10-18T15:19:37.006Z,18.60
2017-10-18T15:22:39.842Z,18.40
2017-10-18T15:25:41.793Z,18.40
2017-10-18T15:28:43.785Z,18.20
2017-10-18T15:31:46.570Z,17.90
2017-10-18T15:34:48.871Z,17.90
2017-10-18T15:37:50.986Z,17.70
2017-10-18T15:40:53.063Z,17.50
2017-10-18T15:43:55.228Z,17.30
2017-10-18T15:46:58.041Z,16.90
2017-10-18T15:50:00.834Z,16.80
2017-10-18T15:53:04.051Z,16.60
2017-10-18T15:56:06.886Z,16.50
2017-10-18T15:59:08.985Z,16.50
2017-10-18T16:02:11.046Z,16.30
2017-10-18T16:05:12.998Z,16.20
2017-10-18T16:08:15.798Z,15.90
2017-10-18T16:11:18.546Z,15.70
2017-10-18T16:14:20.610Z,15.70
2017-10-18T16:17:23.013Z,15.60
2017-10-18T16:20:24.943Z,15.50
2017-10-18T16:23:26.926Z,15.40
2017-10-18T16:26:29.648Z,15.10
2017-10-18T16:29:32.778Z,15.00
2017-10-18T16:32:35.560Z,14.90
2017-10-18T16:35:38.663Z,14.80
2017-10-18T16:38:40.857Z,14.80
2017-10-18T16:41:43.757Z,14.60
2017-10-18T16:44:46.557Z,14.60
2017-10-18T16:47:48.582Z,14.50
2017-10-18T16:50:51.502Z,14.50
2017-10-18T16:53:53.563Z,14.50
2017-10-18T16:56:55.496Z,14.40
2017-10-18T16:59:58.512Z,14.40
2017-10-18T17:03:00.526Z,14.30
2017-10-18T17:06:03.728Z,14.20
2017-10-18T17:09:06.546Z,14.10
2017-10-18T17:12:08.621Z,14.10
2017-10-18T17:15:11.322Z,14.00
2017-10-18T17:18:14.137Z,14.00
2017-10-18T17:21:16.122Z,14.00
2017-10-18T17:24:18.204Z,14.00
2017-10-18T17:27:20.272Z,13.90
2017-10-18T17:30:23.402Z,13.80
2017-10-18T17:33:25.357Z,13.80
2017-10-18T17:36:28.459Z,13.70
2017-10-18T17:39:30.426Z,13.60
2017-10-18T17:42:32.449Z,13.60
2017-10-18T17:45:34.430Z,13.50
2017-10-18T17:48:37.486Z,13.40
2017-10-18T17:51:39.437Z,13.40
2017-10-18T17:54:41.478Z,13.40
2017-10-18T17:57:43.549Z,13.40
2017-10-18T18:00:45.923Z,13.30
2017-10-18T18:03:47.964Z,13.20
2017-10-18T18:06:51.105Z,13.10
2017-10-18T18:09:53.051Z,13.10
2017-10-18T18:12:55.030Z,13.10
2017-10-18T18:15:57.862Z,13.00
2017-10-18T18:18:59.862Z,13.00
2017-10-18T18:22:01.806Z,12.90
2017-10-18T18:25:04.957Z,12.80
2017-10-18T18:28:07.003Z,12.90
2017-10-18T18:31:10.129Z,12.80
2017-10-18T18:34:12.068Z,12.80
2017-10-18T18:37:15.529Z,12.70
2017-10-18T18:40:17.495Z,12.70
2017-10-18T18:43:20.539Z,12.60
2017-10-18T18:46:22.497Z,12.60
2017-10-18T18:49:25.596Z,12.50
2017-10-18T18:52:28.492Z,12.50
2017-10-18T18:55:30.886Z,12.50
2017-10-18T18:58:32.835Z,12.50
2017-10-18T19:01:34.832Z,12.40
2017-10-18T19:04:36.845Z,12.40
2017-10-18T19:07:39.594Z,12.40
2017-10-18T19:10:41.574Z,12.40
2017-10-18T19:13:43.873Z,12.30
2017-10-18T19:16:45.817Z,12.30
2017-10-18T19:19:48.567Z,12.20
2017-10-18T19:22:50.530Z,12.20
2017-10-18T19:25:52.571Z,12.20
2017-10-18T19:28:55.398Z,12.10
2017-10-18T19:31:57.690Z,12.10
2017-10-18T19:34:59.722Z,12.10
2017-10-18T19:38:01.753Z,12.00
2017-10-18T19:41:04.066Z,12.00
2017-10-18T19:44:06.154Z,11.90
2017-10-18T19:47:08.095Z,11.90
2017-10-18T19:50:10.901Z,11.80
2017-10-18T19:53:13.601Z,11.70
2017-10-18T19:56:16.433Z,11.70
2017-10-18T19:59:18.406Z,11.70
2017-10-18T20:02:20.831Z,11.70
2017-10-18T20:05:22.886Z,11.70
2017-10-18T20:08:24.985Z,11.60
2017-10-18T20:11:26.970Z,11.60
2017-10-18T20:14:29.334Z,11.50
2017-10-18T20:17:32.154Z,11.50
2017-10-18T20:20:35.137Z,11.40
2017-10-18T20:23:37.153Z,11.40
2017-10-18T20:26:39.576Z,11.40
2017-10-18T20:29:41.555Z,11.40
2017-10-18T20:32:43.902Z,11.40
2017-10-18T20:35:46.632Z,11.30
2017-10-18T20:38:49.400Z,11.30
2017-10-18T20:41:52.088Z,11.20
2017-10-18T20:44:54.393Z,11.20
2017-10-18T20:47:57.094Z,11.20
2017-10-18T20:51:00.023Z,11.20
2017-10-18T20:54:01.965Z,11.10
2017-10-18T20:57:04.291Z,11.10
2017-10-18T21:00:06.245Z,11.10
2017-10-18T21:03:08.543Z,11.00
2017-10-18T21:06:11.245Z,11.00
2017-10-18T21:09:14.065Z,10.90
2017-10-18T21:12:16.005Z,10.90
2017-10-18T21:15:18.060Z,10.90
2017-10-18T21:18:20.015Z,10.90
2017-10-18T21:21:22.036Z,10.90
2017-10-18T21:24:24.109Z,10.90
2017-10-18T21:27:26.268Z,10.80
2017-10-18T21:30:29.075Z,10.80
2017-10-18T21:33:31.482Z,10.80
2017-10-18T21:36:33.447Z,10.80
2017-10-18T21:39:36.533Z,10.70
2017-10-18T21:42:38.822Z,10.70
2017-10-18T21:45:41.634Z,10.70
2017-10-18T21:48:43.565Z,10.70
2017-10-18T21:51:45.770Z,10.70
2017-10-18T21:54:47.890Z,10.70
2017-10-18T21:57:50.219Z,10.70
2017-10-18T22:00:52.270Z,10.70
2017-10-18T22:03:54.229Z,10.70
2017-10-18T22:06:56.242Z,10.70
2017-10-18T22:09:59.367Z,10.60
2017-10-18T22:13:01.342Z,10.60
2017-10-18T22:16:04.454Z,10.60
2017-10-18T22:19:07.156Z,10.60
2017-10-18T22:22:09.874Z,10.50
2017-10-18T22:25:12.021Z,10.50
2017-10-18T22:28:14.172Z,10.50
2017-10-18T22:31:16.217Z,10.50
2017-10-18T22:34:19.087Z,10.40
2017-10-18T22:37:21.081Z,10.40
2017-10-18T22:40:23.084Z,10.40
2017-10-18T22:43:25.906Z,10.30
2017-10-18T22:46:28.370Z,10.30
2017-10-18T22:49:31.070Z,10.20
2017-10-18T22:52:34.170Z,10.20
2017-10-18T22:55:36.116Z,10.20
2017-10-18T22:58:38.470Z,10.20
2017-10-18T23:01:40.449Z,10.10
2017-10-18T23:04:43.516Z,10.10
2017-10-18T23:07:45.501Z,10.10
2017-10-18T23:10:48.130Z,10.10
2017-10-18T23:13:50.849Z,10.10
2017-10-18T23:16:53.209Z,10.00
2017-10-18T23:19:55.626Z,10.10
2017-10-18T23:22:58.731Z,10.00
2017-10-18T23:26:01.556Z,10.00
2017-10-18T23:29:03.913Z,10.00
2017-10-18T23:32:06.864Z,10.00
2017-10-18T23:35:08.862Z,10.00
2017-10-18T23:38:10.804Z,10.00
2017-10-18T23:41:13.670Z,10.00
2017-10-18T23:44:15.693Z,10.00
2017-10-18T23:47:18.446Z,10.10
2017-10-18T23:50:20.462Z,10.00
2017-10-18T23:53:22.625Z,10.10
2017-10-18T23:56:25.577Z,10.10
2017-10-18T23:59:27.592Z,10.10
